This is the latest recevied weather packets stored in our database for station/object KD9IXX-13. If no packets are shown the sender has not sent any weather packets the latest 10 day(s).
| Time | Temp. | Humidity | Pressure | Rain* | Wind** | Luminosity | Snow |
|---|---|---|---|---|---|---|---|
| 1787543702 | 15.56° C | 89% | 1018.1 hPa | 0 mm | - | 0 W/m² | - |
| 1787542802 | 16.11° C | 86% | 1018.3 hPa | 0 mm | - | 0 W/m² | - |
| 1787541602 | 16.11° C | 87% | 1018.4 hPa | 0 mm | - | 0 W/m² | - |
| 1787541002 | 15.56° C | 91% | 1018.3 hPa | 0 mm | - | 0 W/m² | - |
| 1787539802 | 15° C | 91% | 1018.3 hPa | 0 mm | - | 0 W/m² | - |
| 1787539202 | 15.56° C | 89% | 1018.3 hPa | 0 mm | - | 0 W/m² | - |
| 1787538602 | 15.56° C | 87% | 1018.4 hPa | 0 mm | - | 0 W/m² | - |
| 1787537702 | 16.67° C | 85% | 1018.4 hPa | 0 mm | - | 0 W/m² | - |
| 1787537402 | 16.67° C | 85% | 1018.2 hPa | 0 mm | - | 0 W/m² | - |
| 1787537102 | 16.11° C | 84% | 1018.2 hPa | 0 mm | - | 0 W/m² | - |
| 1787536801 | 16.67° C | 83% | 1018.2 hPa | 0 mm | - | 0 W/m² | - |
| 1787536502 | 16.67° C | 81% | 1018.3 hPa | 0 mm | - | 0 W/m² | - |
| 1787535002 | 17.22° C | 79% | 1018.2 hPa | 0 mm | - | 0 W/m² | - |
| 1787534702 | 17.22° C | 78% | 1017.9 hPa | 0 mm | - | 0 W/m² | - |
| 1787534402 | 17.78° C | 77% | 1018 hPa | 0 mm | - | 0 W/m² | - |
| 1787534102 | 18.33° C | 76% | 1017.8 hPa | 0 mm | - | 0 W/m² | - |
| 1787532002 | 20.56° C | 66% | 1017.5 hPa | 0 mm | - | 1 W/m² | - |
| 1787529902 | 21.11° C | 64% | 1017.3 hPa | 0 mm | - | 23 W/m² | - |
| 1787529602 | 21.67° C | 63% | 1017.4 hPa | 0 mm | - | 27 W/m² | - |
| 1787529002 | 21.67° C | 61% | 1017.4 hPa | 0 mm | - | 35 W/m² | - |
| 1787526002 | 23.33° C | 56% | 1017.5 hPa | 0 mm | - | 125 W/m² | - |
| 1787525102 | 23.33° C | 59% | 1017.7 hPa | 0 mm | - | 175 W/m² | - |
| 1787524802 | 22.78° C | 61% | 1017.7 hPa | 0 mm | - | 140 W/m² | - |
| 1787524502 | 22.22° C | 59% | 1017.6 hPa | 0 mm | - | 95 W/m² | - |
| 1787524202 | 22.22° C | 61% | 1017.6 hPa | 0 mm | - | 86 W/m² | - |
* Rain latest hour (hover to see other rain measurements)
** Current wind speed in m/s (hover to see current wind gust speed)